Time;durP1;ratioP1;P1;durP2;ratioP2;P2;SDS_P1;SDS_P2;PMS_P1;PMS_P2;Temp;Humidity;BMP_temperature;BMP_pressure;BME280_temperature;BME280_humidity;BME280_pressure;Samples;Min_cycle;Max_cycle;Signal;HPM_P1;HPM_P2
2023/03/15 00:00:53;;;;;;;11.52;1.63;;;3.80;99.90;;;;;;5094393;28;20040;-81
2023/03/15 00:03:19;;;;;;;9.50;1.77;;;3.80;99.90;;;;;;5093724;28;20060;-80
2023/03/15 00:05:46;;;;;;;10.73;2.35;;;3.80;99.90;;;;;;5094234;28;20052;-80
2023/03/15 00:08:15;;;;;;;11.05;1.80;;;3.80;99.90;;;;;;5094217;28;20206;-80
2023/03/15 00:10:46;;;;;;;10.55;1.88;;;3.80;99.90;;;;;;5094149;28;20138;-80
2023/03/15 00:13:12;;;;;;;16.27;2.55;;;3.90;99.90;;;;;;5094094;28;20040;-79
2023/03/15 00:15:47;;;;;;;10.10;1.40;;;3.90;99.90;;;;;;5094653;28;20044;-80
2023/03/15 00:18:14;;;;;;;10.82;1.90;;;4.00;99.90;;;;;;5094050;28;20488;-80
2023/03/15 00:20:40;;;;;;;7.95;1.48;;;4.00;99.90;;;;;;5094039;28;20055;-80
2023/03/15 00:23:05;;;;;;;12.27;1.73;;;4.00;99.90;;;;;;5093913;28;20044;-80
2023/03/15 00:25:31;;;;;;;13.80;1.83;;;4.00;99.90;;;;;;5093963;28;20048;-80
2023/03/15 00:27:57;;;;;;;10.57;2.00;;;4.00;99.90;;;;;;5092850;28;20384;-80
2023/03/15 00:30:22;;;;;;;10.90;1.90;;;4.00;99.90;;;;;;5093839;28;20044;-80
2023/03/15 00:32:52;;;;;;;10.90;1.97;;;4.00;99.90;;;;;;5093868;28;20147;-81
2023/03/15 00:35:18;;;;;;;8.32;1.30;;;4.00;99.90;;;;;;5093728;28;20387;-81
2023/03/15 00:37:44;;;;;;;8.80;1.48;;;3.90;99.90;;;;;;5093785;28;20518;-81
2023/03/15 00:40:11;;;;;;;10.65;1.50;;;3.90;99.90;;;;;;5094299;28;20147;-81
2023/03/15 00:42:37;;;;;;;8.90;1.83;;;3.90;99.90;;;;;;5093670;28;20056;-81
2023/03/15 00:45:04;;;;;;;12.90;1.73;;;3.90;99.90;;;;;;5092398;28;20091;-80
2023/03/15 00:47:30;;;;;;;9.05;1.52;;;3.90;99.90;;;;;;5093970;28;20123;-80
2023/03/15 00:49:56;;;;;;;12.23;2.07;;;3.90;99.90;;;;;;5093679;28;20518;-80
2023/03/15 00:52:22;;;;;;;12.27;1.47;;;3.90;99.90;;;;;;5093589;28;20104;-80
2023/03/15 00:54:52;;;;;;;7.20;1.33;;;3.80;99.90;;;;;;5093647;28;20050;-81
2023/03/15 00:57:18;;;;;;;11.10;1.73;;;3.90;99.90;;;;;;5093555;28;20048;-80
2023/03/15 00:59:44;;;;;;;6.85;1.33;;;3.90;99.90;;;;;;5092465;28;20048;-80
2023/03/15 01:02:11;;;;;;;6.97;1.38;;;3.90;99.90;;;;;;5091978;28;20050;-80
2023/03/15 01:04:37;;;;;;;11.15;1.58;;;3.80;99.90;;;;;;5094009;28;20048;-80
2023/03/15 01:07:03;;;;;;;10.27;1.65;;;3.80;99.90;;;;;;5092194;28;20048;-80
2023/03/15 01:09:30;;;;;;;9.57;1.70;;;3.80;99.90;;;;;;5093560;28;20434;-80
2023/03/15 01:11:56;;;;;;;9.23;1.50;;;3.80;99.90;;;;;;5093383;28;20052;-80
2023/03/15 01:14:22;;;;;;;7.57;1.45;;;3.80;99.90;;;;;;5094777;28;20438;-80
2023/03/15 01:16:49;;;;;;;9.52;1.50;;;3.80;99.90;;;;;;5097600;28;20052;-81
2023/03/15 01:19:15;;;;;;;10.07;1.45;;;3.70;99.90;;;;;;5097500;28;20083;-81
2023/03/15 01:21:41;;;;;;;9.82;1.98;;;3.70;99.90;;;;;;5097451;28;20040;-80
2023/03/15 01:24:11;;;;;;;9.33;1.87;;;3.70;99.90;;;;;;5098169;28;20429;-80
2023/03/15 01:26:36;;;;;;;7.35;1.48;;;3.70;99.90;;;;;;5097256;28;20117;-80
2023/03/15 01:29:02;;;;;;;9.13;1.70;;;3.70;99.90;;;;;;5097322;28;20040;-80
2023/03/15 01:31:29;;;;;;;9.13;1.60;;;3.70;99.90;;;;;;5097273;28;20173;-80
2023/03/15 01:33:56;;;;;;;9.15;1.45;;;3.60;99.90;;;;;;5097054;28;20051;-80
2023/03/15 01:36:23;;;;;;;13.55;1.80;;;3.60;99.90;;;;;;5097120;28;20044;-79
2023/03/15 01:38:49;;;;;;;10.38;2.42;;;3.50;99.90;;;;;;5097146;28;20043;-79
2023/03/15 01:41:16;;;;;;;8.40;1.90;;;3.50;99.90;;;;;;5096870;28;20074;-80
2023/03/15 01:43:48;;;;;;;13.00;1.80;;;3.50;99.90;;;;;;5096956;28;20032;-80
2023/03/15 01:46:23;;;;;;;11.93;2.13;;;3.50;99.90;;;;;;5097037;28;20044;-80
2023/03/15 01:49:18;;;;;;;13.25;2.13;;;3.50;99.90;;;;;;5079075;28;20040;-80
2023/03/15 01:51:52;;;;;;;7.90;1.70;;;3.50;99.90;;;;;;5097516;28;20094;-80
2023/03/15 01:54:48;;;;;;;11.18;2.22;;;3.50;99.90;;;;;;5096852;28;20127;-80
2023/03/15 01:57:27;;;;;;;12.07;1.42;;;3.40;99.90;;;;;;5096796;28;20052;-80
2023/03/15 02:00:09;;;;;;;13.90;2.40;;;3.40;99.90;;;;;;5097069;28;20123;-80
2023/03/15 02:02:35;;;;;;;7.82;1.40;;;3.40;99.90;;;;;;5096327;28;20500;-80
2023/03/15 02:05:10;;;;;;;9.18;1.98;;;3.50;99.90;;;;;;5096495;28;20043;-80
2023/03/15 02:07:39;;;;;;;11.10;1.52;;;3.40;99.90;;;;;;5097191;28;20081;-79
2023/03/15 02:10:12;;;;;;;7.57;1.50;;;3.30;99.90;;;;;;5096589;28;20131;-80
2023/03/15 02:12:44;;;;;;;8.75;1.27;;;3.30;99.90;;;;;;5096498;28;20048;-80
2023/03/15 02:15:10;;;;;;;8.13;1.33;;;3.40;99.90;;;;;;5096774;28;20036;-81
2023/03/15 02:17:43;;;;;;;8.32;1.40;;;3.30;99.90;;;;;;5095669;28;20044;-80
2023/03/15 02:20:17;;;;;;;11.35;2.35;;;3.30;99.90;;;;;;5096959;28;20086;-80
2023/03/15 02:22:54;;;;;;;8.55;1.33;;;3.30;99.90;;;;;;5096339;28;20048;-79
2023/03/15 02:25:30;;;;;;;5.60;1.05;;;3.30;99.90;;;;;;5095753;28;20483;-80
2023/03/15 02:27:57;;;;;;;5.25;0.90;;;3.40;99.90;;;;;;5096189;28;20044;-80
2023/03/15 02:30:23;;;;;;;6.00;1.30;;;3.30;99.90;;;;;;5095817;28;20510;-80
2023/03/15 02:32:49;;;;;;;8.13;1.50;;;3.40;99.90;;;;;;5096003;28;20048;-80
2023/03/15 02:35:26;;;;;;;6.55;1.27;;;3.40;99.90;;;;;;5096195;28;20036;-80
2023/03/15 02:37:52;;;;;;;6.13;1.35;;;3.30;99.90;;;;;;5095645;28;20050;-81
2023/03/15 02:40:21;;;;;;;7.20;1.30;;;3.40;99.90;;;;;;5095912;28;20040;-81
2023/03/15 02:42:50;;;;;;;5.25;1.05;;;3.30;99.90;;;;;;5095809;28;20056;-81
2023/03/15 02:45:16;;;;;;;5.68;1.05;;;3.30;99.90;;;;;;5096595;28;20051;-81
2023/03/15 02:47:44;;;;;;;8.63;1.00;;;3.20;99.90;;;;;;5095779;28;20085;-81
2023/03/15 02:50:10;;;;;;;4.80;0.95;;;3.20;99.90;;;;;;5095765;28;20091;-81
2023/03/15 02:52:36;;;;;;;8.15;1.63;;;3.20;99.90;;;;;;5095697;28;20127;-80
2023/03/15 02:55:02;;;;;;;6.60;1.10;;;3.10;99.90;;;;;;5094713;28;20464;-81
2023/03/15 02:57:28;;;;;;;7.10;1.10;;;3.10;99.90;;;;;;5095359;28;20059;-81
2023/03/15 02:59:54;;;;;;;7.32;1.27;;;3.10;99.90;;;;;;5095561;28;20430;-80
2023/03/15 03:02:20;;;;;;;6.45;1.40;;;3.00;99.90;;;;;;5095115;28;20487;-80
2023/03/15 03:04:46;;;;;;;6.22;1.35;;;3.10;99.90;;;;;;5094986;28;20047;-80
2023/03/15 03:07:12;;;;;;;6.68;1.25;;;3.10;99.90;;;;;;5094228;28;20044;-80
2023/03/15 03:09:38;;;;;;;9.60;1.60;;;3.10;99.90;;;;;;5095403;28;20047;-80
2023/03/15 03:12:04;;;;;;;9.97;1.30;;;3.10;99.90;;;;;;5095349;28;20073;-80
2023/03/15 03:14:30;;;;;;;9.90;1.50;;;3.10;99.90;;;;;;5095301;28;20078;-80
2023/03/15 03:16:56;;;;;;;7.63;1.47;;;3.10;99.90;;;;;;5093806;28;20087;-80
2023/03/15 03:19:24;;;;;;;11.88;1.67;;;3.10;99.90;;;;;;5094836;28;20454;-80
2023/03/15 03:21:53;;;;;;;9.13;1.50;;;3.20;99.90;;;;;;5095106;28;20048;-80
2023/03/15 03:24:20;;;;;;;9.27;1.60;;;3.20;99.90;;;;;;5093822;28;20040;-80
2023/03/15 03:26:46;;;;;;;11.80;1.70;;;3.10;99.90;;;;;;5094973;28;20088;-82
2023/03/15 03:29:15;;;;;;;8.43;1.42;;;3.10;99.90;;;;;;5095008;28;20101;-81
2023/03/15 03:31:41;;;;;;;12.88;1.52;;;3.10;99.90;;;;;;5094972;28;20400;-80
2023/03/15 03:34:09;;;;;;;7.47;1.48;;;3.10;99.90;;;;;;5095098;28;20480;-80
2023/03/15 03:36:35;;;;;;;10.88;1.73;;;3.10;99.90;;;;;;5094049;28;20131;-78
2023/03/15 03:39:00;;;;;;;8.73;1.70;;;3.10;99.90;;;;;;5093827;28;20083;-81
2023/03/15 03:41:26;;;;;;;6.10;1.33;;;3.10;99.90;;;;;;5095294;28;20048;-81
2023/03/15 03:43:52;;;;;;;8.13;1.43;;;3.20;99.90;;;;;;5093805;28;20113;-81
2023/03/15 03:46:18;;;;;;;8.63;1.23;;;3.20;99.90;;;;;;5093435;28;20044;-81
2023/03/15 03:48:43;;;;;;;8.57;1.73;;;3.20;99.90;;;;;;5095106;28;20088;-80
2023/03/15 03:51:10;;;;;;;6.00;1.40;;;3.10;99.90;;;;;;5095475;28;20044;-81
2023/03/15 03:53:36;;;;;;;8.55;1.60;;;3.20;99.90;;;;;;5094517;28;20052;-81
2023/03/15 03:56:04;;;;;;;10.93;1.20;;;3.10;99.90;;;;;;5094501;28;20056;-81
2023/03/15 03:58:30;;;;;;;8.77;1.50;;;3.10;99.90;;;;;;5094410;28;20048;-81
2023/03/15 04:00:55;;;;;;;6.13;1.00;;;3.10;99.90;;;;;;5094371;28;20097;-81
2023/03/15 04:03:26;;;;;;;6.87;1.20;;;3.10;99.90;;;;;;5075886;28;20056;-82
2023/03/15 04:05:56;;;;;;;7.30;1.40;;;3.10;99.90;;;;;;5094864;28;20108;-81
2023/03/15 04:08:23;;;;;;;7.20;1.17;;;3.10;99.90;;;;;;5093025;28;20044;-82
2023/03/15 04:10:54;;;;;;;6.88;1.40;;;3.10;99.90;;;;;;5093288;28;20051;-81
2023/03/15 04:13:20;;;;;;;7.47;1.30;;;3.10;99.90;;;;;;5094725;28;20385;-82
2023/03/15 04:15:46;;;;;;;9.40;1.70;;;3.10;99.90;;;;;;5094601;28;20354;-82
2023/03/15 04:18:13;;;;;;;9.32;2.20;;;3.10;99.90;;;;;;5093939;28;20052;-81
2023/03/15 04:20:45;;;;;;;8.52;1.55;;;3.00;99.90;;;;;;5094052;28;20048;-81
2023/03/15 04:23:18;;;;;;;10.05;2.03;;;3.00;99.90;;;;;;5094524;28;20047;-81
2023/03/15 04:25:50;;;;;;;15.35;1.67;;;3.00;99.90;;;;;;5093979;28;20109;-81
2023/03/15 04:28:18;;;;;;;5.30;1.27;;;2.90;99.90;;;;;;5092730;28;20059;-82
2023/03/15 04:30:44;;;;;;;9.60;1.88;;;2.90;99.90;;;;;;5094698;28;20383;-81
2023/03/15 04:33:10;;;;;;;13.32;2.10;;;2.90;99.90;;;;;;5093837;28;20142;-81
2023/03/15 04:35:37;;;;;;;9.95;1.80;;;2.90;99.90;;;;;;5094716;28;20051;-81
2023/03/15 04:38:04;;;;;;;10.90;2.15;;;2.90;99.90;;;;;;5092828;28;20051;-81
2023/03/15 04:40:33;;;;;;;8.98;2.05;;;2.90;99.90;;;;;;5093853;28;20071;-81
2023/03/15 04:43:02;;;;;;;8.27;1.65;;;2.80;99.90;;;;;;5093707;28;20040;-81
2023/03/15 04:45:29;;;;;;;8.55;1.73;;;2.70;99.90;;;;;;5093670;28;20036;-81
2023/03/15 04:47:55;;;;;;;7.07;1.50;;;2.70;99.90;;;;;;5093831;28;20043;-81
2023/03/15 04:50:21;;;;;;;8.23;1.83;;;2.70;99.90;;;;;;5094157;28;20582;-81
2023/03/15 04:52:47;;;;;;;10.65;1.63;;;2.60;99.90;;;;;;5092825;28;20085;-80
2023/03/15 04:55:13;;;;;;;8.50;1.47;;;2.60;99.90;;;;;;5093846;28;20123;-81
2023/03/15 04:57:39;;;;;;;18.07;2.53;;;2.50;99.90;;;;;;5093450;28;20039;-81
2023/03/15 05:00:07;;;;;;;7.90;1.83;;;2.50;99.90;;;;;;5094096;28;20094;-81
2023/03/15 05:02:33;;;;;;;6.97;1.30;;;2.60;99.90;;;;;;5091850;28;20079;-81
2023/03/15 05:04:59;;;;;;;7.40;1.73;;;2.50;99.90;;;;;;5092168;28;20058;-81
2023/03/15 05:07:25;;;;;;;7.72;1.35;;;2.50;99.90;;;;;;5093312;28;20055;-81
2023/03/15 05:09:51;;;;;;;12.70;1.50;;;2.50;99.90;;;;;;5093028;28;20130;-81
2023/03/15 05:12:17;;;;;;;9.73;2.10;;;2.50;99.90;;;;;;5093731;28;20133;-81
2023/03/15 05:14:43;;;;;;;7.23;1.60;;;2.50;99.90;;;;;;5092016;28;20039;-81
2023/03/15 05:17:09;;;;;;;11.83;1.40;;;2.50;99.90;;;;;;5093359;28;20086;-81
2023/03/15 05:19:35;;;;;;;13.93;1.30;;;2.40;99.90;;;;;;5093868;28;20278;-81
2023/03/15 05:22:02;;;;;;;4.77;1.00;;;2.40;99.90;;;;;;5093298;28;20048;-81
2023/03/15 05:24:28;;;;;;;6.53;1.23;;;2.30;99.90;;;;;;5093225;28;20036;-81
2023/03/15 05:26:54;;;;;;;8.67;1.73;;;2.30;99.90;;;;;;5092009;28;20075;-80
2023/03/15 05:29:21;;;;;;;8.47;1.40;;;2.30;99.90;;;;;;5075461;28;20134;-82
2023/03/15 05:31:47;;;;;;;7.80;1.58;;;2.30;99.90;;;;;;5094063;28;20059;-82
2023/03/15 05:34:13;;;;;;;6.13;1.20;;;2.30;99.90;;;;;;5092983;28;20492;-81
2023/03/15 05:36:40;;;;;;;11.10;1.40;;;2.30;99.90;;;;;;5093194;28;20051;-81
2023/03/15 05:39:07;;;;;;;5.90;0.98;;;2.30;99.90;;;;;;5093433;28;20044;-81
2023/03/15 05:41:33;;;;;;;10.15;2.15;;;2.40;99.90;;;;;;5093276;28;20185;-81
2023/03/15 05:43:59;;;;;;;7.03;1.40;;;2.40;99.90;;;;;;5075407;28;20056;-81
2023/03/15 05:46:25;;;;;;;8.23;1.83;;;2.30;99.90;;;;;;5093217;28;20137;-81
2023/03/15 05:48:52;;;;;;;6.00;1.23;;;2.40;99.90;;;;;;5093359;28;20408;-78
2023/03/15 05:51:18;;;;;;;8.65;1.27;;;2.30;99.90;;;;;;5091982;28;20122;-81
2023/03/15 05:53:44;;;;;;;8.77;1.30;;;2.30;99.90;;;;;;5092091;28;20135;-81
2023/03/15 05:56:09;;;;;;;15.90;2.13;;;2.30;99.90;;;;;;5092044;28;20075;-81
2023/03/15 05:58:35;;;;;;;4.97;1.30;;;2.30;99.90;;;;;;5092710;28;20051;-81
2023/03/15 06:01:03;;;;;;;9.93;1.60;;;2.30;99.90;;;;;;5096029;28;20479;-81
2023/03/15 06:03:30;;;;;;;7.00;1.63;;;2.40;99.90;;;;;;5096722;28;20064;-81
2023/03/15 06:05:59;;;;;;;7.72;1.10;;;2.30;99.90;;;;;;5097538;28;20369;-81
2023/03/15 06:08:26;;;;;;;8.20;1.27;;;2.30;99.90;;;;;;5096423;28;20554;-81
2023/03/15 06:10:51;;;;;;;9.45;1.73;;;2.30;99.90;;;;;;5096417;28;20044;-81
2023/03/15 06:13:17;;;;;;;9.70;1.67;;;2.40;99.90;;;;;;5097396;28;20044;-81
2023/03/15 06:15:46;;;;;;;10.23;1.50;;;2.30;99.90;;;;;;5096574;28;20086;-81
2023/03/15 06:18:12;;;;;;;9.35;1.70;;;2.40;99.90;;;;;;5096544;28;20059;-81
2023/03/15 06:20:39;;;;;;;9.70;1.52;;;2.40;99.90;;;;;;5096533;28;20094;-81
2023/03/15 06:23:05;;;;;;;10.18;1.75;;;2.40;99.90;;;;;;5096620;28;20365;-81
2023/03/15 06:25:31;;;;;;;8.35;1.27;;;2.40;99.90;;;;;;5096375;28;20079;-81
2023/03/15 06:27:56;;;;;;;7.97;1.40;;;2.40;99.90;;;;;;5096417;28;20133;-81
2023/03/15 06:30:22;;;;;;;7.33;1.30;;;2.40;99.90;;;;;;5096736;28;20105;-82
2023/03/15 06:32:48;;;;;;;5.57;1.27;;;2.40;99.90;;;;;;5096339;28;20044;-82
2023/03/15 06:35:14;;;;;;;8.03;1.60;;;2.40;99.90;;;;;;5096436;28;20043;-81
2023/03/15 06:37:40;;;;;;;9.53;1.70;;;2.50;99.90;;;;;;5096028;28;20147;-81
2023/03/15 06:40:08;;;;;;;12.20;2.28;;;2.50;99.90;;;;;;5095269;28;20044;-81
2023/03/15 06:42:35;;;;;;;12.50;2.10;;;2.50;99.90;;;;;;5096666;28;20116;-81
2023/03/15 06:45:02;;;;;;;5.82;1.73;;;2.50;99.90;;;;;;5096457;28;20036;-81
2023/03/15 06:47:28;;;;;;;8.18;1.50;;;2.60;99.90;;;;;;5096758;28;20106;-80
2023/03/15 06:49:54;;;;;;;13.38;1.92;;;2.60;99.90;;;;;;5096660;28;20094;-81
2023/03/15 06:52:20;;;;;;;7.50;1.60;;;2.70;99.90;;;;;;5095941;28;20395;-81
2023/03/15 06:54:45;;;;;;;9.40;2.13;;;2.70;99.90;;;;;;5094878;28;20369;-81
2023/03/15 06:57:11;;;;;;;9.93;1.80;;;2.70;99.90;;;;;;5095881;28;20105;-80
2023/03/15 06:59:37;;;;;;;5.83;1.80;;;2.80;99.90;;;;;;5094792;28;20047;-80
2023/03/15 07:02:03;;;;;;;12.20;2.13;;;2.70;99.90;;;;;;5078616;28;20036;-79
2023/03/15 07:04:28;;;;;;;9.13;1.60;;;2.80;99.90;;;;;;5094394;28;20091;-81
2023/03/15 07:06:54;;;;;;;10.80;2.10;;;2.80;99.90;;;;;;5078054;28;20056;-82
2023/03/15 07:09:20;;;;;;;11.17;2.23;;;2.80;99.90;;;;;;5095138;28;20047;-82
2023/03/15 07:11:45;;;;;;;11.57;2.00;;;2.80;99.90;;;;;;5094240;28;20043;-82
2023/03/15 07:14:11;;;;;;;13.23;1.53;;;2.90;99.90;;;;;;5094522;28;20059;-81
2023/03/15 07:16:37;;;;;;;10.97;1.50;;;2.90;99.90;;;;;;5095910;28;20067;-82
2023/03/15 07:19:03;;;;;;;10.07;2.00;;;3.10;99.90;;;;;;5094853;28;20047;-82
2023/03/15 07:21:28;;;;;;;11.90;1.50;;;3.10;99.90;;;;;;5095354;28;20070;-82
2023/03/15 07:23:54;;;;;;;6.50;1.50;;;3.50;99.90;;;;;;5093723;28;20484;-82
2023/03/15 07:26:20;;;;;;;12.97;1.80;;;4.70;99.90;;;;;;5095836;28;20105;-82
2023/03/15 07:28:46;;;;;;;11.88;2.08;;;6.00;99.90;;;;;;5096025;28;20044;-83
2023/03/15 07:31:12;;;;;;;11.20;2.73;;;7.30;99.90;;;;;;5095414;28;20510;-81
2023/03/15 07:33:39;;;;;;;7.97;1.60;;;8.30;99.90;;;;;;5094104;28;20052;-81
2023/03/15 07:36:06;;;;;;;7.88;1.63;;;9.20;99.90;;;;;;5095115;28;20048;-81
2023/03/15 07:38:33;;;;;;;8.85;1.63;;;9.30;99.90;;;;;;5094972;28;20056;-82
2023/03/15 07:41:04;;;;;;;8.55;2.17;;;9.00;99.90;;;;;;5093472;28;20044;-78
2023/03/15 07:43:30;;;;;;;6.40;1.30;;;8.40;99.90;;;;;;5094141;28;20051;-77
2023/03/15 07:45:56;;;;;;;7.37;1.60;;;7.90;99.90;;;;;;5094795;28;20278;-78
2023/03/15 07:48:22;;;;;;;7.63;1.50;;;7.50;99.90;;;;;;5095330;28;20098;-77
2023/03/15 07:50:48;;;;;;;8.13;1.40;;;7.20;99.90;;;;;;5094751;28;20472;-77
2023/03/15 07:53:14;;;;;;;7.88;1.33;;;7.00;99.90;;;;;;5093343;28;20047;-77
2023/03/15 07:55:40;;;;;;;7.68;1.63;;;6.80;99.90;;;;;;5076722;28;20048;-77
2023/03/15 07:58:05;;;;;;;7.73;1.30;;;6.70;99.90;;;;;;5094254;28;20055;-77
2023/03/15 08:00:31;;;;;;;7.53;1.27;;;6.50;99.90;;;;;;5094672;28;20043;-77
2023/03/15 08:02:58;;;;;;;7.83;1.63;;;6.40;99.90;;;;;;5094213;28;20484;-77
2023/03/15 08:05:24;;;;;;;6.18;1.38;;;6.40;99.90;;;;;;5094597;28;20426;-78
2023/03/15 08:07:50;;;;;;;5.55;1.23;;;6.40;99.90;;;;;;5094334;28;20079;-78
2023/03/15 08:10:17;;;;;;;6.40;1.23;;;6.40;99.90;;;;;;5094232;28;20079;-77
2023/03/15 08:12:43;;;;;;;7.43;1.50;;;6.40;99.90;;;;;;5094282;28;20050;-77
2023/03/15 08:15:13;;;;;;;6.05;1.30;;;6.40;99.90;;;;;;5094217;28;20044;-76
2023/03/15 08:17:40;;;;;;;7.82;2.65;;;6.40;99.90;;;;;;5094246;28;20098;-76
2023/03/15 08:20:10;;;;;;;7.55;1.90;;;6.40;99.90;;;;;;5094116;28;20040;-77
2023/03/15 08:22:37;;;;;;;9.00;1.98;;;6.40;99.90;;;;;;5093681;28;20051;-77
2023/03/15 08:25:03;;;;;;;5.65;1.80;;;6.40;99.90;;;;;;5093932;28;20123;-77
2023/03/15 08:27:29;;;;;;;7.53;1.35;;;6.30;99.90;;;;;;5093052;28;20079;-78
2023/03/15 08:29:54;;;;;;;9.50;1.87;;;6.30;99.90;;;;;;5094024;28;20079;-78
2023/03/15 08:32:20;;;;;;;7.73;1.90;;;6.30;99.90;;;;;;5093856;28;20083;-77
2023/03/15 08:34:46;;;;;;;6.00;1.23;;;6.30;99.90;;;;;;5092618;28;20119;-77
2023/03/15 08:37:13;;;;;;;4.78;1.35;;;6.30;99.90;;;;;;5093715;28;20480;-77
2023/03/15 08:39:39;;;;;;;5.15;1.10;;;6.30;99.90;;;;;;5092623;28;20040;-77
2023/03/15 08:42:05;;;;;;;5.13;1.40;;;6.20;99.90;;;;;;5093816;28;20067;-77
2023/03/15 08:44:32;;;;;;;5.35;1.15;;;6.20;99.90;;;;;;5093272;28;20043;-77
2023/03/15 08:46:57;;;;;;;6.30;1.30;;;6.10;99.90;;;;;;5094502;28;20131;-77
2023/03/15 08:49:24;;;;;;;5.40;1.30;;;6.10;99.90;;;;;;5093695;28;20144;-77
2023/03/15 08:51:50;;;;;;;4.40;1.10;;;6.10;99.90;;;;;;5092734;28;20396;-78
2023/03/15 08:54:16;;;;;;;7.43;1.27;;;6.10;99.90;;;;;;5093655;28;20044;-78
2023/03/15 08:56:42;;;;;;;6.60;1.00;;;6.00;99.90;;;;;;5093624;28;20452;-79
2023/03/15 08:59:09;;;;;;;6.68;1.30;;;5.90;99.90;;;;;;5093603;28;20280;-78
2023/03/15 09:01:35;;;;;;;5.47;1.33;;;5.90;99.90;;;;;;5093656;28;20048;-79
2023/03/15 09:04:01;;;;;;;4.57;1.65;;;5.90;99.90;;;;;;5075226;28;20051;-80
2023/03/15 09:06:28;;;;;;;5.20;1.10;;;5.90;99.90;;;;;;5093406;28;20048;-78
2023/03/15 09:08:54;;;;;;;4.65;1.15;;;5.90;99.90;;;;;;5093448;28;20076;-77
2023/03/15 09:11:21;;;;;;;6.32;1.10;;;5.80;99.90;;;;;;5093393;28;20083;-78
2023/03/15 09:13:47;;;;;;;5.55;1.30;;;5.90;99.90;;;;;;5093432;28;20480;-78
2023/03/15 09:16:13;;;;;;;6.88;1.17;;;5.90;99.90;;;;;;5093421;28;20044;-78
2023/03/15 09:18:40;;;;;;;5.22;1.27;;;5.90;99.90;;;;;;5094182;28;20087;-79
2023/03/15 09:21:06;;;;;;;6.93;1.27;;;5.90;99.90;;;;;;5093468;28;20043;-79
2023/03/15 09:23:32;;;;;;;10.37;2.53;;;5.90;99.90;;;;;;5093575;28;20040;-78
2023/03/15 09:25:58;;;;;;;7.18;1.42;;;5.90;99.90;;;;;;5094212;28;20048;-80
2023/03/15 09:28:27;;;;;;;8.20;1.83;;;5.90;99.90;;;;;;5093335;28;20545;-78
2023/03/15 09:30:53;;;;;;;9.35;1.73;;;5.90;99.90;;;;;;5093587;28;20127;-79
2023/03/15 09:33:21;;;;;;;9.90;1.70;;;5.90;99.90;;;;;;5093232;28;20135;-78
2023/03/15 09:35:50;;;;;;;7.88;1.67;;;6.00;99.90;;;;;;5095436;28;20055;-78
2023/03/15 09:38:16;;;;;;;11.25;1.73;;;6.00;99.90;;;;;;5097224;28;20048;-81
2023/03/15 09:40:44;;;;;;;8.68;1.80;;;6.00;99.90;;;;;;5097813;28;20050;-82
2023/03/15 09:43:30;;;;;;;10.73;2.00;;;6.00;99.90;;;;;;5097189;28;20431;-81
2023/03/15 09:46:29;;;;;;;6.47;1.63;;;6.00;99.90;;;;;;5097284;28;20502;-81
2023/03/15 09:49:08;;;;;;;9.93;1.98;;;6.00;99.90;;;;;;5096436;28;20048;-75
2023/03/15 09:51:53;;;;;;;7.82;2.00;;;6.10;99.90;;;;;;5097134;28;20059;-81
2023/03/15 09:54:35;;;;;;;8.47;1.50;;;6.10;99.90;;;;;;5097036;28;20127;-78
2023/03/15 09:57:03;;;;;;;9.38;1.60;;;6.20;99.90;;;;;;5096727;28;20461;-78
2023/03/15 09:59:34;;;;;;;10.23;1.67;;;6.20;99.90;;;;;;5096779;28;20126;-79
2023/03/15 10:02:11;;;;;;;8.73;1.98;;;6.30;99.90;;;;;;5097374;28;20048;-77
2023/03/15 10:04:39;;;;;;;7.82;1.92;;;6.40;99.90;;;;;;5096447;28;20060;-81
2023/03/15 10:07:10;;;;;;;6.35;1.67;;;6.60;99.90;;;;;;5096489;28;20502;-76
2023/03/15 10:09:36;;;;;;;10.98;1.80;;;6.70;99.90;;;;;;5097491;28;20055;-77
2023/03/15 10:12:05;;;;;;;7.60;1.63;;;6.80;99.90;;;;;;5096593;28;20563;-78
2023/03/15 10:14:52;;;;;;;7.13;1.80;;;6.80;99.90;;;;;;5078874;28;20040;-77
2023/03/15 10:17:58;;;;;;;7.35;1.77;;;6.90;99.90;;;;;;5097259;28;20056;-78
2023/03/15 10:20:28;;;;;;;10.40;3.25;;;6.80;99.90;;;;;;5062134;28;20139;-77
2023/03/15 10:22:56;;;;;;;12.63;2.17;;;6.70;99.90;;;;;;5097145;28;20134;-77
2023/03/15 10:25:26;;;;;;;10.73;1.60;;;6.70;99.90;;;;;;5096410;28;20551;-78
2023/03/15 10:28:28;;;;;;;7.40;1.67;;;6.70;99.90;;;;;;5096579;28;20040;-78
2023/03/15 10:31:04;;;;;;;8.48;1.60;;;6.70;99.90;;;;;;5096838;28;20131;-77
2023/03/15 10:33:38;;;;;;;11.73;2.00;;;6.80;99.90;;;;;;5097013;28;20043;-77
2023/03/15 10:36:30;;;;;;;13.98;2.47;;;6.90;99.90;;;;;;5096063;28;20044;-77
2023/03/15 10:38:57;;;;;;;9.13;1.80;;;7.00;99.90;;;;;;5091933;28;20052;-77
2023/03/15 10:41:45;;;;;;;11.45;2.00;;;7.00;99.90;;;;;;5096047;28;20040;-77
2023/03/15 10:44:20;;;;;;;8.68;1.60;;;7.00;99.90;;;;;;5095736;28;20376;-78
2023/03/15 10:47:08;;;;;;;14.10;2.05;;;6.90;99.90;;;;;;5094390;28;20056;-77
2023/03/15 10:49:39;;;;;;;6.55;1.60;;;6.80;99.90;;;;;;5078641;28;20044;-78
2023/03/15 10:52:23;;;;;;;10.57;2.25;;;6.80;99.90;;;;;;5095803;28;20480;-77
2023/03/15 10:54:51;;;;;;;7.97;1.75;;;6.70;99.90;;;;;;5095054;28;20503;-77
2023/03/15 10:57:21;;;;;;;7.65;1.58;;;6.60;99.90;;;;;;5095004;28;20106;-78
2023/03/15 11:00:08;;;;;;;14.90;2.15;;;6.60;99.90;;;;;;5096112;28;20047;-78
2023/03/15 11:02:33;;;;;;;10.35;1.77;;;6.60;99.90;;;;;;5095632;28;20108;-77
2023/03/15 11:05:03;;;;;;;11.57;1.93;;;6.60;99.90;;;;;;5095579;28;20139;-78
2023/03/15 11:07:34;;;;;;;14.05;2.20;;;6.70;99.90;;;;;;5094262;28;20141;-78
2023/03/15 11:10:03;;;;;;;12.32;2.53;;;6.80;99.90;;;;;;5095508;28;20082;-78
2023/03/15 11:12:32;;;;;;;11.13;2.25;;;6.90;99.90;;;;;;5095377;28;20044;-78
2023/03/15 11:15:12;;;;;;;11.20;1.70;;;7.00;99.90;;;;;;5095318;28;20047;-78
2023/03/15 11:17:44;;;;;;;9.80;1.40;;;7.10;99.90;;;;;;5095374;28;20044;-76
2023/03/15 11:20:29;;;;;;;8.70;1.48;;;7.10;99.90;;;;;;5094020;28;20048;-76
2023/03/15 11:22:57;;;;;;;8.55;1.90;;;7.00;99.90;;;;;;5094312;28;20129;-77
2023/03/15 11:25:29;;;;;;;12.75;1.90;;;7.00;99.90;;;;;;5095583;28;20048;-76
2023/03/15 11:27:55;;;;;;;11.20;2.03;;;6.90;99.90;;;;;;5095159;28;20044;-77
2023/03/15 11:30:30;;;;;;;9.47;1.63;;;6.90;99.90;;;;;;5095278;28;20047;-77
2023/03/15 11:33:05;;;;;;;6.22;1.63;;;6.90;99.90;;;;;;5094966;28;20131;-75
2023/03/15 11:35:46;;;;;;;7.80;1.83;;;7.00;99.90;;;;;;5094961;28;20040;-75
2023/03/15 11:38:32;;;;;;;9.07;1.70;;;7.10;99.90;;;;;;5095519;28;20097;-80
2023/03/15 11:40:59;;;;;;;8.70;1.65;;;7.00;99.90;;;;;;5095475;28;20384;-76
2023/03/15 11:43:28;;;;;;;7.53;1.45;;;7.00;99.90;;;;;;5093671;28;20052;-82
2023/03/15 11:46:03;;;;;;;11.60;2.85;;;7.00;99.90;;;;;;5094846;28;20050;-81
2023/03/15 11:48:31;;;;;;;8.23;1.58;;;6.90;99.90;;;;;;5095672;28;20067;-79
2023/03/15 11:51:00;;;;;;;8.25;1.65;;;6.90;99.90;;;;;;5093815;28;20056;-76
2023/03/15 11:53:31;;;;;;;9.82;2.30;;;7.00;99.90;;;;;;5094978;28;20048;-79
2023/03/15 11:56:19;;;;;;;11.90;1.63;;;7.00;99.90;;;;;;5094872;28;20098;-78
2023/03/15 11:59:10;;;;;;;11.90;2.67;;;7.10;99.90;;;;;;5094692;28;20044;-79
2023/03/15 12:01:36;;;;;;;9.57;1.85;;;7.10;99.90;;;;;;5094595;28;20365;-79
2023/03/15 12:04:36;;;;;;;10.02;1.75;;;7.10;99.90;;;;;;5093841;28;20557;-77
2023/03/15 12:07:26;;;;;;;11.50;1.95;;;7.00;99.90;;;;;;5094241;28;20044;-77
2023/03/15 12:09:55;;;;;;;9.27;1.73;;;7.10;99.90;;;;;;5093510;28;20047;-76
2023/03/15 12:12:23;;;;;;;8.35;1.55;;;7.10;99.90;;;;;;5094294;28;20048;-76
2023/03/15 12:15:14;;;;;;;10.80;1.70;;;7.10;99.90;;;;;;5093272;28;20438;-80
2023/03/15 12:17:56;;;;;;;8.95;1.55;;;7.10;99.90;;;;;;5093088;28;20039;-83
2023/03/15 12:20:37;;;;;;;8.15;1.92;;;7.20;99.90;;;;;;5094443;28;20472;-78
2023/03/15 12:23:18;;;;;;;9.57;1.95;;;7.20;99.90;;;;;;5093048;28;20444;-78
2023/03/15 12:26:09;;;;;;;9.02;1.83;;;7.30;99.90;;;;;;5094263;28;20040;-78
2023/03/15 12:28:37;;;;;;;8.68;1.92;;;7.40;99.90;;;;;;5094334;28;20047;-78
2023/03/15 12:31:06;;;;;;;7.65;1.65;;;7.40;99.90;;;;;;5093894;28;20052;-75
2023/03/15 12:33:49;;;;;;;13.32;1.83;;;7.50;99.90;;;;;;5092953;28;20047;-80
2023/03/15 12:36:40;;;;;;;11.30;2.00;;;7.60;99.90;;;;;;5094699;28;20051;-79
2023/03/15 12:39:15;;;;;;;8.37;1.50;;;7.60;99.90;;;;;;5093574;28;20048;-80
2023/03/15 12:41:49;;;;;;;7.93;1.90;;;7.60;99.90;;;;;;5075908;28;20365;-80
2023/03/15 12:44:18;;;;;;;16.33;2.47;;;7.70;99.90;;;;;;5094303;28;20062;-79
2023/03/15 12:46:43;;;;;;;10.90;1.87;;;7.80;99.90;;;;;;5093435;28;20234;-79
2023/03/15 12:49:27;;;;;;;6.73;1.40;;;7.80;99.90;;;;;;5093183;28;20370;-78
2023/03/15 12:52:05;;;;;;;6.45;1.40;;;7.80;99.90;;;;;;5093436;28;20075;-79
2023/03/15 12:54:45;;;;;;;13.65;2.00;;;7.70;99.90;;;;;;5093695;28;20044;-78
2023/03/15 12:57:22;;;;;;;8.97;1.67;;;7.60;99.90;;;;;;5076615;28;20056;-78
2023/03/15 12:59:50;;;;;;;8.63;1.63;;;7.60;99.90;;;;;;5094025;28;20273;-78
2023/03/15 13:02:27;;;;;;;8.73;1.90;;;7.60;99.90;;;;;;5093045;28;20048;-78
2023/03/15 13:05:22;;;;;;;9.40;1.80;;;7.60;99.90;;;;;;5075092;28;20052;-79